メインページ
METAR-TAF:

METAR-TAF

空港 :

Kapuskasing, オンタリオ州, カナダ

緯度: 49-25N, 経度: 082-28W, 海抜: 227m

現時点の気象観測

当レポートは48分前の05:00(UTC)に作成
無風
気温 -2°C
湿度 86%
気圧 1017 hPa
視程: 24.1km
晴天

METAR: CYYU 040500Z 00000KT 15SM SKC M02/M04 A3003 RMK SLP183

時間: 01:48 (05:48 UTC)

予報

当レポートは4時間9分前の01:39(UTC)に作成
予報は04日の 02時(UTC)から 04日の 14時(UTC)まで有効
変向風 3kt
視程: 10km
晴天
確率 40%
04日の 06時(UTC)から 04日の 13時(UTC)まで
視程: 1.6km
04日の 1300時(UTC)から
の風 5kt
視程: 10km
高度3000ftの雲は散在している

TAF: CYYU 040139Z 0402/0414 VRB03KT P6SM SKC PROB40 0406/0413 1SM BR FM041300 19005KT P6SM SCT030 RMK NXT FCST BY 040800Z

4,000以上の空港の気象観測と天気予報(METAR報とTAF報)

利用可能な観測所は地図上に黄色い丸と赤い丸で示す。

丸の上にカーソルを重ねると観測所名を参照できる。

次にクリックすると気象観測と天気予報を参照できる。

マップの切り替え:黒色「×」印の緑ボタンをクリックして拡大、「-」印の緑ボタンをクリックして縮小、緑色の三角印をクリックして隣りの地図に切り替え


METAR-TAF: